Time;durP1;ratioP1;P1;durP2;ratioP2;P2;SDS_P1;SDS_P2;PMS_P1;PMS_P2;Temp;Humidity;BMP_temperature;BMP_pressure;BME280_temperature;BME280_humidity;BME280_pressure;Samples;Min_cycle;Max_cycle;Signal;HPM_P1;HPM_P2
2021/11/05 00:00:44;;;;;;;4.90;2.60;;;;;;;7.71;73.04;99611.28;85663;1320;79299;-63
2021/11/05 00:02:57;;;;;;;6.70;2.60;;;;;;;7.69;73.02;99616.13;85617;1319;82165;-63
2021/11/05 00:05:10;;;;;;;3.60;2.50;;;;;;;7.68;72.95;99618.61;85569;1320;97416;-62
2021/11/05 00:07:19;;;;;;;5.70;2.20;;;;;;;7.67;73.07;99619.48;85633;1319;87328;-64
2021/11/05 00:09:32;;;;;;;4.50;2.20;;;;;;;7.66;73.10;99622.29;85603;1319;91966;-62
2021/11/05 00:11:42;;;;;;;3.80;2.40;;;;;;;7.64;73.02;99625.17;85579;1319;79255;-65
2021/11/05 00:13:51;;;;;;;3.30;2.30;;;;;;;7.66;73.12;99624.10;85602;1323;83308;-63
2021/11/05 00:16:04;;;;;;;4.80;2.40;;;;;;;7.68;73.04;99627.31;85605;1322;100283;-63
2021/11/05 00:18:14;;;;;;;6.60;3.50;;;;;;;7.67;72.92;99633.06;85601;1325;89482;-63
2021/11/05 00:20:23;;;;;;;4.00;2.30;;;;;;;7.65;72.97;99632.46;85598;1325;93648;-63
2021/11/05 00:22:35;;;;;;;4.90;2.50;;;;;;;7.66;72.99;99636.89;85632;1320;79393;-63
2021/11/05 00:24:45;;;;;;;3.60;2.10;;;;;;;7.65;72.87;99633.03;85579;1319;82629;-63
2021/11/05 00:26:54;;;;;;;4.40;2.40;;;;;;;7.63;72.91;99637.15;85645;1320;98994;-64
2021/11/05 00:29:03;;;;;;;3.40;2.10;;;;;;;7.64;72.95;99639.35;85592;1320;88102;-63
2021/11/05 00:31:15;;;;;;;3.40;2.40;;;;;;;7.66;72.97;99634.08;85592;1324;94362;-64
2021/11/05 00:33:25;;;;;;;5.00;2.20;;;;;;;7.67;72.95;99640.59;85605;1319;81008;-64
2021/11/05 00:35:37;;;;;;;4.70;2.40;;;;;;;7.70;72.89;99644.17;85599;1323;81084;-64
2021/11/05 00:37:49;;;;;;;4.00;2.10;;;;;;;7.73;72.91;99643.48;85527;1319;98376;-64
2021/11/05 00:39:59;;;;;;;3.70;2.30;;;;;;;7.80;72.87;99643.41;85619;1319;88535;-64
2021/11/05 00:42:11;;;;;;;4.60;2.20;;;;;;;7.81;72.78;99640.36;85613;1325;95764;-63
2021/11/05 00:44:21;;;;;;;4.80;2.40;;;;;;;7.81;72.67;99644.43;85580;1319;78246;-65
2021/11/05 00:46:30;;;;;;;3.90;2.10;;;;;;;7.82;72.51;99642.54;85568;1319;82607;-64
2021/11/05 00:48:45;;;;;;;3.00;2.00;;;;;;;7.83;72.63;99644.24;85631;1320;98477;-63
2021/11/05 00:50:57;;;;;;;3.80;2.30;;;;;;;7.82;72.55;99639.31;85619;1320;88986;-64
2021/11/05 00:53:06;;;;;;;2.80;1.90;;;;;;;7.83;72.49;99639.14;85605;1319;94563;-64
2021/11/05 00:55:16;;;;;;;3.60;2.10;;;;;;;7.84;72.53;99645.02;85592;1319;80720;-62
2021/11/05 00:57:28;;;;;;;3.30;2.00;;;;;;;7.87;72.51;99643.57;85598;1319;80732;-63
2021/11/05 00:59:40;;;;;;;4.00;2.10;;;;;;;7.90;72.47;99652.92;85557;1319;99528;-63
2021/11/05 01:01:50;;;;;;;3.30;2.10;;;;;;;7.94;72.18;99651.61;85618;1325;88911;-64
2021/11/05 01:04:02;;;;;;;3.40;2.20;;;;;;;7.97;72.19;99651.80;85589;1320;95491;-62
2021/11/05 01:06:17;;;;;;;3.20;1.80;;;;;;;7.99;72.19;99650.78;85608;1325;79545;-62
2021/11/05 01:08:35;;;;;;;3.40;2.20;;;;;;;8.03;72.16;99655.09;85601;1323;82993;-64
2021/11/05 01:10:45;;;;;;;4.40;2.40;;;;;;;8.08;72.28;99657.66;85481;1319;99718;-63
2021/11/05 01:12:54;;;;;;;3.10;2.10;;;;;;;8.12;72.05;99662.59;85620;1319;87798;-63
2021/11/05 01:15:06;;;;;;;3.30;1.90;;;;;;;8.15;72.03;99659.56;85626;1322;95171;-66
2021/11/05 01:17:15;;;;;;;2.50;1.80;;;;;;;8.18;71.94;99661.09;85632;1319;79286;-66
2021/11/05 01:19:24;;;;;;;3.10;1.80;;;;;;;8.20;71.74;99658.56;85620;1320;81639;-63
2021/11/05 01:21:33;;;;;;;4.10;1.80;;;;;;;8.24;71.62;99665.98;85593;1320;100279;-62
2021/11/05 01:23:47;;;;;;;3.80;2.30;;;;;;;8.26;71.63;99667.42;85618;1323;88130;-64
2021/11/05 01:25:56;;;;;;;3.90;1.80;;;;;;;8.27;71.59;99671.80;85604;1319;94535;-66
2021/11/05 01:28:07;;;;;;;2.90;1.90;;;;;;;8.29;71.46;99675.54;85598;1319;78374;-67
2021/11/05 01:30:17;;;;;;;3.90;1.90;;;;;;;8.32;71.35;99676.81;85597;1317;79860;-62
2021/11/05 01:32:28;;;;;;;3.10;1.70;;;;;;;8.33;71.44;99679.92;85613;1319;100101;-64
2021/11/05 01:34:41;;;;;;;4.40;1.80;;;;;;;8.36;71.11;99680.80;85641;1319;88304;-61
2021/11/05 01:36:53;;;;;;;3.20;1.80;;;;;;;8.37;71.23;99674.00;85629;1324;95449;-63
2021/11/05 01:39:06;;;;;;;3.90;2.30;;;;;;;8.37;71.15;99676.29;85604;1323;79260;-64
2021/11/05 01:41:15;;;;;;;4.10;2.10;;;;;;;8.38;70.96;99677.15;85588;1323;81498;-67
2021/11/05 01:43:27;;;;;;;3.70;1.60;;;;;;;8.38;70.89;99681.00;85596;1319;100408;-64
2021/11/05 01:45:36;;;;;;;2.50;1.70;;;;;;;8.40;70.84;99679.41;85525;1319;88193;-64
2021/11/05 01:47:46;;;;;;;3.30;1.70;;;;;;;8.42;70.87;99682.16;85550;1320;95253;-65
2021/11/05 01:49:55;;;;;;;3.30;1.90;;;;;;;8.44;70.78;99681.02;85610;1320;79827;-64
2021/11/05 01:52:07;;;;;;;2.40;1.80;;;;;;;8.46;70.85;99687.70;85639;1322;82818;-62
2021/11/05 01:54:19;;;;;;;3.10;1.80;;;;;;;8.46;70.55;99686.84;85617;1319;99228;-66
2021/11/05 01:56:29;;;;;;;4.50;2.40;;;;;;;8.46;70.62;99686.25;85587;1319;89352;-65
2021/11/05 01:58:39;;;;;;;2.10;1.60;;;;;;;8.47;70.53;99693.84;85585;1322;95865;-66
2021/11/05 02:00:48;;;;;;;2.40;1.60;;;;;;;8.47;70.55;99694.29;85602;1319;79689;-66
2021/11/05 02:02:58;;;;;;;2.60;1.60;;;;;;;8.46;70.49;99691.52;85464;1320;82380;-65
2021/11/05 02:05:10;;;;;;;3.30;1.60;;;;;;;8.46;70.44;99696.53;85568;1323;97992;-65
2021/11/05 02:07:22;;;;;;;3.80;1.60;;;;;;;8.47;70.48;99686.17;85599;1323;89590;-68
2021/11/05 02:09:33;;;;;;;2.40;1.50;;;;;;;8.49;70.29;99685.30;85560;1319;95324;-65
2021/11/05 02:11:43;;;;;;;3.00;1.70;;;;;;;8.48;70.39;99685.46;85650;1320;77787;-68
2021/11/05 02:13:58;;;;;;;2.70;1.60;;;;;;;8.50;70.14;99683.52;85568;1319;80600;-67
2021/11/05 02:16:13;;;;;;;2.60;1.80;;;;;;;8.51;70.12;99687.80;85596;1319;98339;-66
2021/11/05 02:18:25;;;;;;;2.80;1.70;;;;;;;8.52;69.92;99690.95;85639;1319;88937;-65
2021/11/05 02:20:35;;;;;;;3.10;1.80;;;;;;;8.52;69.84;99685.02;85634;1325;95026;-67
2021/11/05 02:22:44;;;;;;;2.60;1.80;;;;;;;8.52;69.86;99686.23;85600;1319;78819;-65
2021/11/05 02:24:57;;;;;;;4.80;1.60;;;;;;;8.53;69.69;99693.19;85611;1325;82857;-65
2021/11/05 02:27:07;;;;;;;3.80;1.80;;;;;;;8.54;69.72;99694.95;85603;1320;98465;-65
2021/11/05 02:29:17;;;;;;;3.10;1.70;;;;;;;8.56;69.62;99692.52;85620;1317;85722;-62
2021/11/05 02:31:26;;;;;;;3.20;1.60;;;;;;;8.59;69.80;99694.37;85608;1323;95406;-62
2021/11/05 02:33:43;;;;;;;2.50;1.70;;;;;;;8.59;69.64;99694.09;85586;1319;79008;-63
2021/11/05 02:35:52;;;;;;;3.30;1.60;;;;;;;8.60;69.57;99692.77;85621;1319;81985;-63
2021/11/05 02:38:02;;;;;;;2.20;1.50;;;;;;;8.60;69.41;99688.48;85606;1319;99923;-62
2021/11/05 02:40:15;;;;;;;4.60;1.40;;;;;;;8.60;69.35;99696.00;85621;1319;88937;-65
2021/11/05 02:42:23;;;;;;;;;;;;;;;8.60;69.43;99692.55;85619;1320;93274;-66
2021/11/05 02:44:33;;;;;;;2.50;1.40;;;;;;;8.59;69.39;99697.35;85577;1320;78043;-62
2021/11/05 02:46:42;;;;;;;4.00;1.70;;;;;;;8.58;69.32;99698.52;85653;1323;82251;-61
2021/11/05 02:48:59;;;;;;;2.70;2.00;;;;;;;8.59;69.34;99696.48;85634;1320;98604;-63
2021/11/05 02:51:11;;;;;;;2.20;1.40;;;;;;;8.61;69.20;99698.03;85604;1318;86534;-63
2021/11/05 02:53:21;;;;;;;2.30;1.60;;;;;;;8.62;69.26;99705.92;85454;1322;95431;-62
2021/11/05 02:55:33;;;;;;;2.40;1.60;;;;;;;8.64;69.06;99710.36;85616;1319;79059;-66
2021/11/05 02:57:42;;;;;;;4.00;1.70;;;;;;;8.66;68.82;99710.06;85609;1323;81529;-66
2021/11/05 02:59:52;;;;;;;3.20;1.90;;;;;;;8.69;68.91;99704.48;85630;1319;100250;-65
2021/11/05 03:02:01;;;;;;;2.70;1.60;;;;;;;8.69;68.95;99709.54;85596;1322;89553;-63
2021/11/05 03:04:16;;;;;;;3.70;1.70;;;;;;;8.68;68.97;99712.55;85575;1319;96144;-67
2021/11/05 03:06:25;;;;;;;2.50;1.70;;;;;;;8.67;68.83;99715.91;85584;1323;80086;-66
2021/11/05 03:08:35;;;;;;;3.00;1.60;;;;;;;8.67;68.93;99722.27;85612;1323;80524;-67
2021/11/05 03:10:44;;;;;;;3.50;1.70;;;;;;;8.65;68.96;99726.15;85587;1319;99842;-65
2021/11/05 03:12:56;;;;;;;2.30;1.50;;;;;;;8.64;68.89;99723.63;85588;1320;89049;-65
2021/11/05 03:15:10;;;;;;;3.30;1.60;;;;;;;8.65;69.01;99727.06;85605;1319;95689;-67
2021/11/05 03:17:20;;;;;;;2.50;1.80;;;;;;;8.65;68.94;99732.98;85597;1319;78256;-67
2021/11/05 03:19:32;;;;;;;3.10;2.00;;;;;;;8.68;69.04;99737.15;85627;1319;80195;-63
2021/11/05 03:21:41;;;;;;;1.90;1.30;;;;;;;8.68;68.93;99735.67;85639;1319;97798;-64
2021/11/05 03:23:51;;;;;;;3.80;1.60;;;;;;;8.68;69.04;99738.11;85577;1319;87923;-62
2021/11/05 03:25:59;;;;;;;2.00;1.30;;;;;;;8.69;68.88;99745.16;85634;1322;95921;-62
2021/11/05 03:28:09;;;;;;;2.70;2.00;;;;;;;8.68;68.82;99740.92;85589;1319;77823;-62
2021/11/05 03:30:20;;;;;;;2.70;1.60;;;;;;;8.67;68.64;99753.94;85617;1319;81691;-67
2021/11/05 03:32:29;;;;;;;2.60;1.70;;;;;;;8.67;68.74;99753.80;85643;1319;100036;-64
2021/11/05 03:34:38;;;;;;;3.00;1.70;;;;;;;8.66;68.82;99750.68;85621;1320;88282;-66
2021/11/05 03:36:48;;;;;;;2.20;1.60;;;;;;;8.66;68.80;99748.77;85594;1322;93545;-66
2021/11/05 03:39:00;;;;;;;3.30;1.60;;;;;;;8.66;68.75;99750.10;85644;1312;79765;-64
2021/11/05 03:41:13;;;;;;;3.50;1.50;;;;;;;8.68;68.79;99754.07;85626;1319;81754;-63
2021/11/05 03:43:25;;;;;;;2.60;2.10;;;;;;;8.68;68.85;99751.12;85625;1319;96168;-62
2021/11/05 03:45:38;;;;;;;3.10;1.80;;;;;;;8.69;68.75;99756.69;85610;1325;89117;-65
2021/11/05 03:47:50;;;;;;;4.40;1.90;;;;;;;8.70;68.71;99757.85;85641;1325;93500;-65
2021/11/05 03:50:00;;;;;;;3.10;2.30;;;;;;;8.71;68.72;99756.15;85515;1319;77976;-70
2021/11/05 03:52:13;;;;;;;3.00;1.80;;;;;;;8.70;68.67;99759.17;85638;1319;81923;-65
2021/11/05 03:54:23;;;;;;;3.20;1.70;;;;;;;8.69;68.61;99752.66;85620;1323;98871;-63
2021/11/05 03:56:32;;;;;;;2.20;1.80;;;;;;;8.68;68.71;99757.38;85610;1319;87794;-63
2021/11/05 03:58:42;;;;;;;3.10;1.90;;;;;;;8.67;68.68;99755.25;85604;1319;95043;-64
2021/11/05 04:00:51;;;;;;;4.00;2.00;;;;;;;8.66;68.73;99756.27;85618;1318;79474;-63
2021/11/05 04:03:00;;;;;;;2.80;1.90;;;;;;;8.66;68.65;99762.86;85579;1319;82737;-63
2021/11/05 04:05:11;;;;;;;2.20;1.60;;;;;;;8.68;68.63;99764.29;85613;1323;100429;-63
2021/11/05 04:07:24;;;;;;;3.20;1.70;;;;;;;8.70;68.64;99767.09;85615;1319;88691;-63
2021/11/05 04:09:36;;;;;;;2.90;1.80;;;;;;;8.69;68.66;99772.88;85617;1319;95396;-63
2021/11/05 04:11:46;;;;;;;2.20;1.60;;;;;;;8.70;68.63;99776.70;85628;1319;78003;-63
2021/11/05 04:13:55;;;;;;;2.90;1.80;;;;;;;8.70;68.59;99777.73;85635;1319;81064;-66
2021/11/05 04:16:05;;;;;;;2.50;1.80;;;;;;;8.70;68.57;99783.24;85586;1323;99600;-65
2021/11/05 04:18:15;;;;;;;2.50;1.90;;;;;;;8.69;68.65;99783.39;85600;1320;87851;-65
2021/11/05 04:20:25;;;;;;;2.90;2.00;;;;;;;8.68;68.51;99786.46;85593;1319;95968;-65
2021/11/05 04:22:34;;;;;;;2.50;1.90;;;;;;;8.69;68.42;99792.30;85597;1319;80371;-66
2021/11/05 04:24:47;;;;;;;2.70;1.80;;;;;;;8.69;68.52;99794.45;85564;1319;80440;-64
2021/11/05 04:26:56;;;;;;;6.30;2.20;;;;;;;8.70;68.43;99796.13;85600;1322;98660;-65
2021/11/05 04:29:05;;;;;;;3.30;2.00;;;;;;;8.71;68.44;99800.33;85633;1319;90056;-64
2021/11/05 04:31:18;;;;;;;2.60;1.80;;;;;;;8.72;68.47;99796.40;85588;1320;95704;-65
2021/11/05 04:33:30;;;;;;;2.60;1.80;;;;;;;8.73;68.47;99801.84;85626;1319;80341;-64
2021/11/05 04:35:41;;;;;;;2.90;2.10;;;;;;;8.72;68.37;99806.09;85616;1322;80382;-62
2021/11/05 04:37:53;;;;;;;4.10;2.10;;;;;;;8.72;68.47;99799.33;85628;1319;99704;-64
2021/11/05 04:40:06;;;;;;;3.20;1.90;;;;;;;8.71;68.45;99804.05;85644;1320;89389;-66
2021/11/05 04:42:18;;;;;;;3.30;2.20;;;;;;;8.69;68.52;99807.14;85611;1319;94819;-66
2021/11/05 04:44:31;;;;;;;4.30;2.20;;;;;;;8.69;68.41;99803.98;85583;1325;79117;-66
2021/11/05 04:46:44;;;;;;;2.50;1.60;;;;;;;8.68;68.48;99809.12;85597;1320;83883;-67
2021/11/05 04:48:56;;;;;;;2.40;2.00;;;;;;;8.66;68.56;99815.23;85602;1319;99241;-63
2021/11/05 04:51:09;;;;;;;3.10;2.10;;;;;;;8.69;68.55;99819.93;85604;1319;88688;-63
2021/11/05 04:53:21;;;;;;;3.00;2.00;;;;;;;8.71;68.46;99819.86;85583;1319;95509;-63
2021/11/05 04:55:34;;;;;;;2.70;1.90;;;;;;;8.72;68.54;99822.20;85622;1319;79166;-65
2021/11/05 04:57:50;;;;;;;2.40;2.00;;;;;;;8.72;68.56;99823.19;85610;1322;83208;-66
2021/11/05 05:00:03;;;;;;;2.60;1.90;;;;;;;8.72;68.42;99828.38;85476;1324;97930;-65
2021/11/05 05:02:17;;;;;;;3.10;2.10;;;;;;;8.71;68.44;99837.52;85418;1319;254568;-64
2021/11/05 05:04:26;;;;;;;2.70;2.40;;;;;;;8.70;68.44;99845.34;85635;1319;92628;-62
2021/11/05 05:06:36;;;;;;;4.00;2.20;;;;;;;8.69;68.47;99849.34;85585;1322;80768;-62
2021/11/05 05:08:45;;;;;;;2.70;1.90;;;;;;;8.67;68.44;99844.40;85598;1323;83167;-63
2021/11/05 05:10:57;;;;;;;3.60;2.00;;;;;;;8.67;68.47;99849.79;85594;1319;98021;-62
2021/11/05 05:13:10;;;;;;;3.00;2.10;;;;;;;8.69;68.44;99855.52;85587;1319;88662;-63
2021/11/05 05:15:22;;;;;;;4.00;2.20;;;;;;;8.71;68.42;99855.78;85619;1323;94208;-62
2021/11/05 05:17:34;;;;;;;4.10;2.50;;;;;;;8.72;68.49;99860.98;85516;1320;80135;-63
2021/11/05 05:19:46;;;;;;;3.20;2.00;;;;;;;8.72;68.43;99864.39;85607;1323;80764;-67
2021/11/05 05:21:58;;;;;;;3.10;2.20;;;;;;;8.72;68.29;99869.50;85610;1319;99583;-64
2021/11/05 05:24:10;;;;;;;5.00;2.10;;;;;;;8.72;68.45;99874.33;85635;1319;89478;-64
2021/11/05 05:26:20;;;;;;;4.90;2.20;;;;;;;8.71;68.42;99878.77;85585;1323;95434;-67
2021/11/05 05:28:32;;;;;;;3.90;2.60;;;;;;;8.70;68.40;99877.11;85597;1320;82891;-65
2021/11/05 05:30:44;;;;;;;3.50;2.30;;;;;;;8.69;68.39;99883.28;85618;1323;83561;-63
2021/11/05 05:32:54;;;;;;;5.70;2.30;;;;;;;8.69;68.32;99886.69;85619;1319;98650;-63
2021/11/05 05:35:03;;;;;;;2.50;2.10;;;;;;;8.70;68.33;99892.82;85562;1319;88806;-64
2021/11/05 05:37:13;;;;;;;2.50;2.00;;;;;;;8.71;68.23;99888.09;85610;1319;94855;-64
2021/11/05 05:39:22;;;;;;;4.80;2.60;;;;;;;8.71;68.31;99897.05;85590;1319;79045;-66
2021/11/05 05:41:31;;;;;;;3.50;2.20;;;;;;;8.72;68.21;99903.23;85590;1319;80335;-65
2021/11/05 05:43:43;;;;;;;3.20;2.30;;;;;;;8.72;68.22;99904.45;85605;1325;99145;-65
2021/11/05 05:45:53;;;;;;;3.50;2.40;;;;;;;8.70;68.32;99905.33;85629;1319;89976;-68
2021/11/05 05:48:02;;;;;;;4.00;2.30;;;;;;;8.68;68.20;99912.48;85593;1320;93027;-64
2021/11/05 05:50:17;;;;;;;4.90;2.40;;;;;;;8.68;68.27;99917.20;85601;1322;81372;-62
2021/11/05 05:52:29;;;;;;;3.80;2.30;;;;;;;8.67;68.25;99925.42;85609;1322;81834;-63
2021/11/05 05:54:39;;;;;;;5.70;2.80;;;;;;;8.66;68.28;99920.88;85569;1319;97530;-64
2021/11/05 05:56:52;;;;;;;4.50;3.20;;;;;;;8.66;68.21;99930.58;85623;1319;89083;-62
2021/11/05 05:59:02;;;;;;;5.90;2.50;;;;;;;8.69;68.09;99928.26;85586;1322;92527;-62
2021/11/05 06:01:12;;;;;;;4.10;2.70;;;;;;;8.70;68.11;99934.91;85601;1320;80960;-63
2021/11/05 06:03:24;;;;;;;5.20;3.10;;;;;;;8.70;68.11;99936.73;85560;1322;83743;-63
2021/11/05 06:05:34;;;;;;;7.80;4.40;;;;;;;8.71;68.14;99937.44;85637;1319;98890;-67
2021/11/05 06:07:46;;;;;;;4.30;2.90;;;;;;;8.71;68.03;99943.16;85616;1323;87859;-70
2021/11/05 06:09:58;;;;;;;4.40;3.00;;;;;;;8.71;68.05;99948.45;85590;1319;95611;-62
2021/11/05 06:12:09;;;;;;;4.40;2.90;;;;;;;8.69;68.30;99950.39;85626;1319;77687;-62
2021/11/05 06:14:19;;;;;;;4.60;2.80;;;;;;;8.69;68.18;99955.23;85603;1319;80722;-67
2021/11/05 06:16:29;;;;;;;4.10;3.00;;;;;;;8.69;68.04;99965.14;85616;1317;97162;-67
2021/11/05 06:18:38;;;;;;;3.90;2.80;;;;;;;8.69;68.08;99971.02;85613;1323;86960;-67
2021/11/05 06:20:48;;;;;;;4.60;3.20;;;;;;;8.71;68.14;99971.70;85592;1319;95360;-67
2021/11/05 06:23:00;;;;;;;5.00;3.10;;;;;;;8.73;68.17;99971.13;85583;1323;78733;-66
2021/11/05 06:25:10;;;;;;;4.30;2.80;;;;;;;8.74;68.09;99978.30;85640;1318;80731;-67
2021/11/05 06:27:23;;;;;;;3.40;2.60;;;;;;;8.76;68.11;99989.71;85608;1319;98855;-67
2021/11/05 06:29:32;;;;;;;5.30;3.40;;;;;;;8.77;68.10;99992.13;85572;1319;86972;-62
2021/11/05 06:31:42;;;;;;;6.00;3.00;;;;;;;8.77;68.03;99990.89;85584;1319;96478;-62
2021/11/05 06:33:54;;;;;;;4.20;2.70;;;;;;;8.76;68.03;99999.80;85623;1319;80124;-67
2021/11/05 06:36:07;;;;;;;4.80;2.90;;;;;;;8.75;67.92;100006.64;85612;1319;80351;-68
2021/11/05 06:38:19;;;;;;;7.50;4.60;;;;;;;8.74;68.02;100005.88;85607;1319;100283;-68
2021/11/05 06:40:33;;;;;;;50.30;31.30;;;;;;;8.74;68.08;100006.25;85590;1323;88231;-66
2021/11/05 06:42:46;;;;;;;9.80;7.30;;;;;;;8.74;68.14;100010.52;85575;1319;95910;-68
2021/11/05 06:44:59;;;;;;;5.30;3.70;;;;;;;8.76;68.20;100017.92;85592;1322;78855;-66
2021/11/05 06:47:08;;;;;;;4.40;3.40;;;;;;;8.77;68.16;100017.27;85547;1323;82158;-63
2021/11/05 06:49:21;;;;;;;5.10;3.10;;;;;;;8.77;68.09;100016.03;85579;1320;100147;-62
2021/11/05 06:51:30;;;;;;;5.40;3.40;;;;;;;8.78;68.16;100025.12;85524;1319;89103;-62
2021/11/05 06:53:42;;;;;;;5.70;3.70;;;;;;;8.77;68.08;100024.85;85607;1320;94618;-63
2021/11/05 06:55:55;;;;;;;5.80;3.00;;;;;;;8.76;68.08;100026.75;85589;1320;79526;-67
2021/11/05 06:58:08;;;;;;;4.30;2.90;;;;;;;8.75;68.05;100028.35;85602;1319;80867;-68
2021/11/05 07:00:19;;;;;;;5.40;3.40;;;;;;;8.73;68.15;100029.45;85633;1319;98923;-68
2021/11/05 07:02:28;;;;;;;4.20;3.50;;;;;;;8.73;68.17;100033.73;85578;1325;88444;-69
2021/11/05 07:04:38;;;;;;;4.00;2.80;;;;;;;8.73;68.09;100038.65;85598;1323;94892;-68
2021/11/05 07:06:47;;;;;;;4.90;3.20;;;;;;;8.73;68.06;100039.23;85615;1319;81300;-67
2021/11/05 07:08:56;;;;;;;6.50;3.20;;;;;;;8.71;68.07;100037.27;85647;1325;81154;-63
2021/11/05 07:11:06;;;;;;;3.80;3.00;;;;;;;8.72;68.06;100039.97;85597;1319;97415;-62
2021/11/05 07:13:18;;;;;;;3.70;3.00;;;;;;;8.72;67.95;100043.05;85587;1319;87498;-63
2021/11/05 07:15:29;;;;;;;4.50;3.50;;;;;;;8.72;67.96;100047.55;85590;1319;95032;-62
2021/11/05 07:17:38;;;;;;;5.50;3.40;;;;;;;8.71;67.94;100053.56;85593;1319;80300;-62
2021/11/05 07:19:51;;;;;;;4.20;3.10;;;;;;;8.71;67.82;100053.98;85554;1319;83122;-67
2021/11/05 07:22:02;;;;;;;4.50;3.60;;;;;;;8.70;67.85;100056.62;85527;1319;98529;-68
2021/11/05 07:24:12;;;;;;;4.70;3.50;;;;;;;8.70;67.87;100059.61;85614;1323;88140;-63
2021/11/05 07:26:22;;;;;;;5.10;3.20;;;;;;;8.69;67.86;100063.36;85594;1319;93802;-61
2021/11/05 07:28:32;;;;;;;6.80;3.50;;;;;;;8.71;67.89;100066.50;85594;1323;78225;-62
2021/11/05 07:30:42;;;;;;;4.10;3.20;;;;;;;8.71;67.85;100069.89;85557;1318;83613;-62
2021/11/05 07:32:52;;;;;;;4.90;3.70;;;;;;;8.72;67.88;100074.30;85455;1322;99518;-62
2021/11/05 07:35:01;;;;;;;6.10;3.30;;;;;;;8.73;67.90;100076.85;85614;1319;86879;-62
2021/11/05 07:37:16;;;;;;;5.50;3.60;;;;;;;8.73;67.60;100081.02;85565;1319;95964;-63
2021/11/05 07:39:27;;;;;;;5.40;3.40;;;;;;;8.74;67.70;100080.20;85583;1319;79699;-66
2021/11/05 07:41:39;;;;;;;5.40;3.40;;;;;;;8.76;67.80;100084.35;85621;1323;82702;-68
2021/11/05 07:43:50;;;;;;;5.70;3.70;;;;;;;8.81;67.80;100083.79;85605;1323;100229;-64
2021/11/05 07:45:59;;;;;;;6.60;3.50;;;;;;;8.93;67.78;100084.00;85524;1319;88867;-63
2021/11/05 07:48:09;;;;;;;7.40;3.70;;;;;;;9.09;67.55;100085.61;85611;1320;94153;-61
2021/11/05 07:50:20;;;;;;;5.60;3.90;;;;;;;10.32;67.90;100084.20;85599;1323;79183;-62
2021/11/05 07:52:34;;;;;;;4.40;3.40;;;;;;;12.57;66.65;100087.56;85591;1319;81858;-63
2021/11/05 07:54:46;;;;;;;5.00;3.10;;;;;;;14.37;64.75;100083.27;85622;1319;98598;-67
2021/11/05 07:56:58;;;;;;;4.70;3.40;;;;;;;15.80;62.63;100081.05;85606;1318;87997;-67
2021/11/05 07:59:09;;;;;;;5.40;3.50;;;;;;;16.87;59.63;100073.35;85476;1324;93319;-68
2021/11/05 08:01:22;;;;;;;4.40;3.00;;;;;;;17.49;58.44;100084.43;85613;1319;79234;-62
2021/11/05 08:03:31;;;;;;;4.10;2.90;;;;;;;17.71;57.02;100087.20;85618;1319;83149;-63
2021/11/05 08:05:42;;;;;;;4.30;3.30;;;;;;;16.38;55.97;100088.48;85598;1324;97314;-69
2021/11/05 08:07:52;;;;;;;5.40;3.30;;;;;;;15.17;56.41;100095.95;85576;1319;88888;-68
2021/11/05 08:10:01;;;;;;;5.30;3.70;;;;;;;14.22;56.60;100106.42;85622;1323;95584;-64
2021/11/05 08:12:11;;;;;;;5.00;3.30;;;;;;;13.61;57.07;100111.59;85574;1319;81243;-62
2021/11/05 08:14:24;;;;;;;5.80;3.20;;;;;;;13.05;57.62;100121.52;85607;1319;82939;-61
2021/11/05 08:16:39;;;;;;;4.40;3.30;;;;;;;12.57;58.07;100122.78;85618;1319;97582;-62
2021/11/05 08:18:53;;;;;;;4.40;3.30;;;;;;;12.12;58.60;100125.20;85446;1321;88208;-62
2021/11/05 08:21:02;;;;;;;5.30;3.30;;;;;;;11.77;59.05;100130.23;85564;1319;95915;-61
2021/11/05 08:23:14;;;;;;;5.70;3.40;;;;;;;11.55;59.39;100129.56;85604;1319;77615;-63
2021/11/05 08:25:28;;;;;;;4.50;3.70;;;;;;;11.21;59.59;100128.98;85487;1319;81741;-68
2021/11/05 08:27:42;;;;;;;4.00;3.50;;;;;;;10.98;60.13;100128.80;85583;1319;100411;-64
2021/11/05 08:29:56;;;;;;;5.30;3.90;;;;;;;10.82;60.40;100124.45;85597;1323;87311;-66
2021/11/05 08:32:10;;;;;;;7.20;4.00;;;;;;;10.64;60.75;100128.23;85635;1320;91947;-62
2021/11/05 08:34:24;;;;;;;7.00;4.10;;;;;;;10.49;61.16;100130.90;85596;1320;78541;-67
2021/11/05 08:36:36;;;;;;;4.20;3.30;;;;;;;10.32;61.50;100128.52;85606;1319;82114;-67
2021/11/05 08:38:46;;;;;;;5.60;3.80;;;;;;;10.20;61.92;100130.97;85631;1322;99290;-67
2021/11/05 08:40:59;;;;;;;5.30;3.60;;;;;;;10.17;62.05;100135.13;85590;1319;87382;-68
2021/11/05 08:43:08;;;;;;;5.80;3.80;;;;;;;10.11;62.28;100145.90;85604;1319;94651;-67
2021/11/05 08:45:21;;;;;;;5.50;3.20;;;;;;;10.07;62.59;100152.41;85629;1319;80908;-62
2021/11/05 08:47:32;;;;;;;6.00;3.80;;;;;;;10.04;62.83;100163.05;85624;1323;82446;-64
2021/11/05 08:49:46;;;;;;;5.40;3.60;;;;;;;10.06;62.96;100168.88;85605;1319;98535;-62
2021/11/05 08:51:57;;;;;;;4.40;3.70;;;;;;;10.03;63.17;100173.76;85554;1319;87922;-61
2021/11/05 08:54:10;;;;;;;5.40;3.90;;;;;;;9.95;63.33;100177.66;85656;1325;94460;-72
2021/11/05 08:56:22;;;;;;;6.80;4.00;;;;;;;9.90;63.46;100190.00;85600;1319;78246;-73
2021/11/05 08:58:43;;;;;;;5.70;3.60;;;;;;;9.86;63.59;100200.34;85600;1319;82793;-67
2021/11/05 09:00:57;;;;;;;5.50;3.80;;;;;;;9.82;63.86;100204.85;85627;1319;98153;-65
2021/11/05 09:03:32;;;;;;;5.00;3.80;;;;;;;9.78;64.00;100214.67;85585;1323;87830;-62
2021/11/05 09:05:55;;;;;;;7.40;3.80;;;;;;;9.74;64.12;100211.99;85444;1322;93538;-67
2021/11/05 09:08:10;;;;;;;3.90;3.40;;;;;;;9.77;64.28;100199.35;85581;1325;81213;-67
2021/11/05 09:10:24;;;;;;;5.80;3.80;;;;;;;9.82;64.35;100192.02;85627;1319;83192;-66
2021/11/05 09:12:38;;;;;;;;;;;;;;;9.86;64.38;100195.61;85597;1323;98674;-68
2021/11/05 09:14:52;;;;;;;4.50;3.60;;;;;;;9.88;64.57;100196.45;85655;1319;89640;-63
2021/11/05 09:17:07;;;;;;;5.10;3.70;;;;;;;9.88;64.44;100199.90;85563;1319;94289;-67
2021/11/05 09:19:21;;;;;;;5.80;3.80;;;;;;;9.87;64.58;100206.33;85609;1323;78845;-67
2021/11/05 09:21:36;;;;;;;5.70;3.90;;;;;;;9.89;64.56;100202.11;85621;1319;81235;-67
2021/11/05 09:23:46;;;;;;;5.00;3.80;;;;;;;9.89;64.45;100206.46;85610;1319;100175;-63
2021/11/05 09:26:00;;;;;;;4.40;3.40;;;;;;;9.90;64.55;100212.26;85585;1319;86985;-62
2021/11/05 09:28:10;;;;;;;6.20;4.10;;;;;;;9.91;64.61;100204.46;85600;1319;95130;-61
2021/11/05 09:30:23;;;;;;;6.20;3.60;;;;;;;9.87;64.62;100210.59;85596;1319;79419;-61
2021/11/05 09:32:36;;;;;;;5.00;4.00;;;;;;;9.82;64.65;100215.60;85626;1319;80389;-62
2021/11/05 09:34:46;;;;;;;5.70;3.90;;;;;;;9.77;64.67;100215.57;85653;1322;99215;-62
2021/11/05 09:36:56;;;;;;;3.70;2.80;;;;;;;9.74;64.78;100215.20;85573;1319;87197;-62
2021/11/05 09:39:06;;;;;;;5.80;3.70;;;;;;;9.72;64.79;100217.29;85611;1319;96112;-62
2021/11/05 09:41:20;;;;;;;5.80;4.00;;;;;;;9.66;64.79;100221.02;85641;1323;79791;-70
2021/11/05 09:43:34;;;;;;;5.60;3.60;;;;;;;9.62;64.92;100226.63;85614;1322;83259;-71
2021/11/05 09:45:44;;;;;;;4.60;3.80;;;;;;;9.60;65.06;100231.33;85467;1322;100360;-61
2021/11/05 09:47:55;;;;;;;5.30;3.90;;;;;;;9.59;65.14;100233.77;85606;1322;88652;-65
2021/11/05 09:50:10;;;;;;;4.60;3.60;;;;;;;9.58;65.22;100239.27;85594;1319;93286;-65
2021/11/05 09:52:23;;;;;;;6.00;3.80;;;;;;;9.56;65.33;100248.33;85572;1319;80044;-62
2021/11/05 09:54:39;;;;;;;6.60;3.80;;;;;;;9.56;65.40;100255.52;85622;1323;83483;-63
2021/11/05 09:56:51;;;;;;;5.90;3.80;;;;;;;9.57;65.49;100258.63;85629;1320;98371;-65
2021/11/05 09:59:00;;;;;;;6.70;4.00;;;;;;;9.58;65.57;100266.38;85591;1320;89609;-66
2021/11/05 10:01:12;;;;;;;6.00;4.40;;;;;;;9.59;65.56;100264.71;85502;1325;95874;-65
2021/11/05 10:03:25;;;;;;;5.50;3.70;;;;;;;9.61;65.67;100262.51;85346;1324;81010;-66
2021/11/05 10:05:39;;;;;;;5.90;4.00;;;;;;;9.59;65.71;100261.95;85644;1323;82414;-65
2021/11/05 10:07:59;;;;;;;7.40;4.30;;;;;;;9.58;65.74;100262.30;85586;1319;100192;-65
2021/11/05 10:10:09;;;;;;;5.50;4.30;;;;;;;9.56;65.87;100277.66;85634;1322;86906;-61
2021/11/05 10:12:22;;;;;;;6.50;4.30;;;;;;;9.54;65.88;100281.15;85626;1319;92099;-62
2021/11/05 10:14:34;;;;;;;5.90;4.30;;;;;;;9.54;65.97;100285.51;85616;1319;78248;-62
2021/11/05 10:16:58;;;;;;;5.20;4.10;;;;;;;9.51;65.99;100291.18;85622;1323;80512;-63
2021/11/05 10:19:12;;;;;;;5.20;4.40;;;;;;;9.49;66.02;100296.10;85606;1323;100596;-63
2021/11/05 10:21:21;;;;;;;5.40;3.60;;;;;;;9.48;66.22;100305.74;85619;1322;86845;-63
2021/11/05 10:23:35;;;;;;;6.90;4.40;;;;;;;9.51;66.28;100314.79;85595;1313;92677;-63